createdAt,value
2022-11-23T00:00:34.752Z,97.96
2022-11-23T00:03:02.636Z,97.89
2022-11-23T00:05:31.664Z,99.24
2022-11-23T00:07:59.396Z,100.00
2022-11-23T00:10:28.591Z,100.00
2022-11-23T00:12:56.274Z,100.00
2022-11-23T00:15:24.112Z,100.00
2022-11-23T00:17:51.905Z,100.00
2022-11-23T00:20:19.708Z,100.00
2022-11-23T00:22:47.441Z,100.00
2022-11-23T00:25:15.321Z,100.00
2022-11-23T00:27:44.428Z,100.00
2022-11-23T00:30:13.269Z,100.00
2022-11-23T00:32:42.732Z,100.00
2022-11-23T00:35:10.471Z,100.00
2022-11-23T00:37:38.159Z,100.00
2022-11-23T00:40:07.488Z,100.00
2022-11-23T00:42:38.109Z,100.00
2022-11-23T00:45:08.750Z,100.00
2022-11-23T00:47:36.485Z,100.00
2022-11-23T00:50:04.892Z,100.00
2022-11-23T00:52:32.659Z,100.00
2022-11-23T00:55:00.372Z,100.00
2022-11-23T00:57:28.201Z,100.00
2022-11-23T00:59:55.969Z,100.00
2022-11-23T01:02:25.053Z,100.00
2022-11-23T01:04:52.791Z,100.00
2022-11-23T01:07:20.590Z,100.00
2022-11-23T01:09:48.482Z,100.00
2022-11-23T01:12:16.167Z,100.00
2022-11-23T01:14:43.989Z,100.00
2022-11-23T01:17:11.651Z,100.00
2022-11-23T01:19:40.784Z,100.00
2022-11-23T01:22:08.464Z,100.00
2022-11-23T01:24:36.256Z,100.00
2022-11-23T01:27:04.017Z,100.00
2022-11-23T01:29:32.175Z,100.00
2022-11-23T01:32:00.121Z,100.00
2022-11-23T01:34:27.897Z,100.00
2022-11-23T01:36:56.981Z,100.00
2022-11-23T01:39:24.808Z,100.00
2022-11-23T01:41:52.520Z,100.00
2022-11-23T01:44:25.476Z,100.00
2022-11-23T01:46:53.232Z,100.00
2022-11-23T01:49:21.247Z,100.00
2022-11-23T01:51:51.924Z,100.00
2022-11-23T01:54:25.832Z,100.00
2022-11-23T01:56:56.784Z,100.00
2022-11-23T01:59:25.798Z,100.00
2022-11-23T02:01:53.797Z,100.00
2022-11-23T02:04:25.327Z,100.00
2022-11-23T02:06:54.519Z,100.00
2022-11-23T02:09:24.076Z,100.00
2022-11-23T02:11:53.020Z,100.00
2022-11-23T02:14:23.550Z,100.00
2022-11-23T02:16:51.741Z,100.00
2022-11-23T02:19:26.858Z,100.00
2022-11-23T02:21:55.147Z,100.00
2022-11-23T02:24:29.716Z,100.00
2022-11-23T02:26:59.192Z,100.00
2022-11-23T02:29:28.544Z,100.00
2022-11-23T02:31:56.769Z,100.00
2022-11-23T02:34:24.602Z,100.00
2022-11-23T02:36:55.547Z,100.00
2022-11-23T02:39:28.099Z,100.00
2022-11-23T02:41:56.475Z,100.00
2022-11-23T02:44:38.387Z,100.00
2022-11-23T02:47:07.580Z,100.00
2022-11-23T02:49:35.442Z,100.00
2022-11-23T02:52:04.242Z,100.00
2022-11-23T02:54:32.175Z,100.00
2022-11-23T02:56:59.920Z,100.00
2022-11-23T02:59:30.420Z,100.00
2022-11-23T03:01:58.379Z,100.00
2022-11-23T03:04:28.048Z,100.00
2022-11-23T03:06:56.028Z,100.00
2022-11-23T03:09:25.994Z,100.00
2022-11-23T03:11:53.772Z,100.00
2022-11-23T03:14:21.592Z,100.00
2022-11-23T03:16:50.692Z,100.00
2022-11-23T03:19:18.443Z,100.00
2022-11-23T03:21:46.200Z,100.00
2022-11-23T03:24:13.972Z,100.00
2022-11-23T03:26:41.644Z,100.00
2022-11-23T03:29:09.436Z,100.00
2022-11-23T03:31:37.401Z,100.00
2022-11-23T03:34:06.563Z,100.00
2022-11-23T03:36:34.307Z,100.00
2022-11-23T03:39:02.168Z,100.00
2022-11-23T03:41:29.931Z,100.00
2022-11-23T03:43:58.112Z,100.00
2022-11-23T03:46:25.920Z,100.00
2022-11-23T03:48:53.689Z,100.00
2022-11-23T03:51:23.022Z,100.00
2022-11-23T03:53:50.754Z,100.00
2022-11-23T03:56:18.531Z,100.00
2022-11-23T03:58:46.284Z,100.00
2022-11-23T04:01:14.085Z,100.00
2022-11-23T04:03:41.789Z,100.00
2022-11-23T04:06:09.588Z,100.00
2022-11-23T04:08:38.710Z,100.00
2022-11-23T04:11:06.652Z,100.00
2022-11-23T04:13:34.433Z,100.00
2022-11-23T04:16:02.231Z,100.00
2022-11-23T04:18:29.981Z,100.00
2022-11-23T04:20:57.780Z,100.00
2022-11-23T04:23:25.751Z,100.00
2022-11-23T04:25:54.852Z,100.00
2022-11-23T04:28:22.545Z,100.00
2022-11-23T04:30:50.343Z,100.00
2022-11-23T04:33:18.097Z,100.00
2022-11-23T04:35:45.828Z,100.00
2022-11-23T04:38:13.718Z,100.00
2022-11-23T04:40:41.543Z,100.00
2022-11-23T04:43:10.769Z,100.00
2022-11-23T04:45:42.120Z,100.00
2022-11-23T04:48:09.895Z,100.00
2022-11-23T04:50:40.347Z,100.00
2022-11-23T04:53:08.779Z,100.00
2022-11-23T04:55:36.626Z,100.00
2022-11-23T04:58:04.635Z,100.00
2022-11-23T05:00:33.805Z,100.00
2022-11-23T05:03:02.264Z,100.00
2022-11-23T05:05:30.215Z,100.00
2022-11-23T05:07:58.879Z,100.00
2022-11-23T05:10:26.635Z,100.00
2022-11-23T05:12:54.447Z,100.00
2022-11-23T05:15:22.336Z,100.00
2022-11-23T05:17:55.159Z,100.00
2022-11-23T05:20:26.327Z,100.00
2022-11-23T05:22:54.021Z,100.00
2022-11-23T05:25:21.708Z,100.00
2022-11-23T05:27:49.580Z,100.00
2022-11-23T05:30:17.416Z,100.00
2022-11-23T05:32:45.184Z,100.00
2022-11-23T05:35:14.907Z,100.00
2022-11-23T05:37:43.220Z,100.00
2022-11-23T05:40:12.283Z,100.00
2022-11-23T05:42:40.101Z,100.00
2022-11-23T05:45:11.459Z,100.00
2022-11-23T05:47:39.821Z,100.00
2022-11-23T05:50:08.859Z,100.00
2022-11-23T05:52:37.900Z,100.00
2022-11-23T05:55:06.113Z,100.00
2022-11-23T05:57:33.943Z,100.00
2022-11-23T06:00:01.744Z,100.00
2022-11-23T06:02:29.660Z,100.00
2022-11-23T06:04:57.425Z,100.00
2022-11-23T06:07:25.321Z,100.00
2022-11-23T06:09:54.379Z,100.00
2022-11-23T06:12:22.408Z,100.00
2022-11-23T06:14:50.267Z,100.00
2022-11-23T06:17:18.092Z,100.00
2022-11-23T06:19:45.857Z,100.00
2022-11-23T06:22:13.801Z,100.00
2022-11-23T06:24:41.574Z,100.00
2022-11-23T06:27:15.285Z,100.00
2022-11-23T06:29:46.938Z,100.00
2022-11-23T06:32:15.177Z,100.00
2022-11-23T06:34:43.196Z,100.00
2022-11-23T06:37:10.953Z,100.00
2022-11-23T06:39:38.640Z,100.00
2022-11-23T06:42:36.644Z,100.00
2022-11-23T06:44:55.467Z,100.00
2022-11-23T06:47:26.449Z,100.00
2022-11-23T06:49:54.333Z,100.00
2022-11-23T06:52:22.276Z,100.00
2022-11-23T06:54:50.101Z,100.00
2022-11-23T06:57:17.956Z,100.00
2022-11-23T06:59:46.263Z,100.00
2022-11-23T07:02:16.483Z,100.00
2022-11-23T07:04:44.215Z,100.00
2022-11-23T07:07:12.140Z,100.00
2022-11-23T07:09:39.921Z,100.00
2022-11-23T07:12:08.336Z,100.00
2022-11-23T07:14:36.092Z,100.00
2022-11-23T07:17:03.849Z,100.00
2022-11-23T07:19:33.171Z,100.00
2022-11-23T07:22:01.132Z,100.00
2022-11-23T07:24:32.836Z,100.00
2022-11-23T07:27:04.332Z,100.00
2022-11-23T07:29:32.228Z,100.00
2022-11-23T07:32:00.423Z,100.00
2022-11-23T07:34:29.213Z,100.00
2022-11-23T07:37:01.961Z,100.00
2022-11-23T07:39:49.203Z,100.00
2022-11-23T07:42:32.406Z,100.00
2022-11-23T07:45:02.815Z,100.00
2022-11-23T07:47:30.476Z,100.00
2022-11-23T07:49:58.140Z,100.00
2022-11-23T07:52:27.391Z,100.00
2022-11-23T07:54:55.100Z,100.00
2022-11-23T07:57:22.882Z,100.00
2022-11-23T07:59:50.644Z,100.00
2022-11-23T08:02:18.532Z,100.00
2022-11-23T08:04:46.424Z,100.00
2022-11-23T08:07:14.209Z,100.00
2022-11-23T08:09:43.637Z,100.00
2022-11-23T08:12:11.444Z,100.00
2022-11-23T08:14:39.262Z,100.00
2022-11-23T08:17:07.012Z,100.00
2022-11-23T08:19:34.784Z,100.00
2022-11-23T08:22:02.608Z,100.00
2022-11-23T08:24:30.707Z,100.00
2022-11-23T08:26:59.992Z,100.00
2022-11-23T08:29:27.771Z,100.00
2022-11-23T08:31:55.535Z,100.00
2022-11-23T08:34:23.292Z,100.00
2022-11-23T08:36:51.151Z,100.00
2022-11-23T08:39:19.329Z,100.00
2022-11-23T08:41:47.120Z,100.00
2022-11-23T08:44:16.232Z,100.00
2022-11-23T08:46:44.049Z,100.00
2022-11-23T08:49:11.804Z,100.00
2022-11-23T08:51:39.645Z,100.00
2022-11-23T08:54:07.460Z,100.00
2022-11-23T08:56:35.215Z,100.00
2022-11-23T08:59:03.189Z,100.00
2022-11-23T09:01:32.281Z,100.00
2022-11-23T09:04:00.484Z,100.00
2022-11-23T09:06:29.438Z,100.00
2022-11-23T09:08:57.261Z,100.00
2022-11-23T09:11:26.293Z,100.00
2022-11-23T09:13:55.129Z,100.00
2022-11-23T09:16:23.168Z,98.42
2022-11-23T09:18:56.830Z,99.69
2022-11-23T09:21:29.485Z,98.95
2022-11-23T09:23:57.492Z,97.97
2022-11-23T09:26:25.337Z,97.86
2022-11-23T09:28:53.074Z,97.05
2022-11-23T09:31:21.028Z,96.32
2022-11-23T09:33:49.685Z,95.93
2022-11-23T09:36:18.823Z,96.16
2022-11-23T09:38:56.116Z,93.94
2022-11-23T09:41:49.088Z,95.89
2022-11-23T09:44:25.593Z,95.53
2022-11-23T09:47:09.444Z,94.46
2022-11-23T09:49:46.720Z,94.93
2022-11-23T09:52:19.356Z,97.75
2022-11-23T09:54:50.591Z,97.07
2022-11-23T09:57:25.236Z,96.05
2022-11-23T10:00:00.133Z,95.72
2022-11-23T10:02:29.895Z,94.42
2022-11-23T10:05:01.427Z,93.67
2022-11-23T10:07:48.820Z,92.50
2022-11-23T10:10:32.253Z,93.11
2022-11-23T10:13:12.700Z,93.63
2022-11-23T10:15:46.913Z,91.62
2022-11-23T10:18:28.818Z,90.59
2022-11-23T10:21:06.399Z,89.12
2022-11-23T10:23:57.821Z,89.28
2022-11-23T10:26:30.860Z,89.41
2022-11-23T10:29:04.147Z,89.00
2022-11-23T10:31:32.792Z,87.38
2022-11-23T10:34:09.697Z,85.66
2022-11-23T10:36:38.034Z,82.17
2022-11-23T10:39:17.824Z,84.73
2022-11-23T10:41:46.492Z,83.62
2022-11-23T10:44:27.910Z,83.25
2022-11-23T10:46:55.640Z,82.74
2022-11-23T10:49:26.168Z,82.41
2022-11-23T10:51:56.710Z,81.02
2022-11-23T10:54:33.292Z,79.61
2022-11-23T10:57:03.519Z,78.38
2022-11-23T10:59:39.459Z,78.84
2022-11-23T11:02:19.838Z,80.03
2022-11-23T11:04:54.446Z,79.27
2022-11-23T11:07:29.634Z,79.17
2022-11-23T11:10:00.824Z,79.71
2022-11-23T11:12:30.374Z,79.07
2022-11-23T11:15:11.005Z,79.01
2022-11-23T11:17:41.620Z,78.64
2022-11-23T11:20:26.140Z,79.79
2022-11-23T11:22:54.413Z,80.83
2022-11-23T11:25:32.785Z,79.79
2022-11-23T11:28:01.319Z,78.81
2022-11-23T11:30:39.734Z,78.24
2022-11-23T11:33:15.952Z,77.18
2022-11-23T11:35:47.312Z,77.17
2022-11-23T11:38:21.255Z,77.46
2022-11-23T11:40:52.148Z,76.75
2022-11-23T11:43:32.337Z,76.47
2022-11-23T11:49:07.266Z,77.11
2022-11-23T11:51:41.320Z,77.27
2022-11-23T11:54:20.075Z,78.17
2022-11-23T11:56:52.045Z,77.21
2022-11-23T11:59:26.271Z,76.36
2022-11-23T12:02:00.151Z,77.00
2022-11-23T12:04:36.785Z,77.06
2022-11-23T12:07:09.338Z,76.27
2022-11-23T12:09:42.435Z,73.56
2022-11-23T12:12:16.430Z,74.37
2022-11-23T12:14:46.689Z,74.78
2022-11-23T12:17:41.128Z,74.19
2022-11-23T12:20:20.623Z,71.58
2022-11-23T12:23:01.423Z,71.52
2022-11-23T12:25:36.693Z,72.34
2022-11-23T12:28:34.206Z,71.59
2022-11-23T12:31:09.481Z,69.66
2022-11-23T12:34:05.916Z,68.84
2022-11-23T12:36:54.089Z,69.62
2022-11-23T12:39:37.877Z,69.58
2022-11-23T12:42:16.610Z,67.29
2022-11-23T12:45:07.460Z,66.96
2022-11-23T12:47:46.631Z,68.08
2022-11-23T12:50:23.075Z,66.98
2022-11-23T12:53:02.908Z,67.02
2022-11-23T12:55:41.425Z,66.41
2022-11-23T12:58:18.024Z,65.39
2022-11-23T13:00:52.523Z,63.41
2022-11-23T13:03:49.603Z,64.18
2022-11-23T13:07:12.653Z,63.38
2022-11-23T13:10:02.328Z,64.53
2022-11-23T13:12:50.009Z,66.85
2022-11-23T13:15:36.329Z,68.54
2022-11-23T13:18:14.014Z,68.39
2022-11-23T13:21:12.364Z,67.41
2022-11-23T13:23:40.984Z,67.33
2022-11-23T13:26:17.120Z,68.81
2022-11-23T13:28:47.126Z,68.50
2022-11-23T13:31:30.952Z,68.76
2022-11-23T13:34:02.549Z,68.20
2022-11-23T13:37:15.549Z,69.85
2022-11-23T13:40:03.650Z,72.91
2022-11-23T13:42:35.683Z,71.93
2022-11-23T13:45:34.327Z,68.80
2022-11-23T13:48:54.804Z,68.62
2022-11-23T13:51:10.932Z,71.41
2022-11-23T13:53:41.691Z,70.63
2022-11-23T13:56:26.865Z,69.75
2022-11-23T13:58:56.739Z,67.04
2022-11-23T14:02:01.323Z,69.31
2022-11-23T14:04:30.790Z,67.14
2022-11-23T14:07:06.906Z,66.83
2022-11-23T14:09:37.836Z,67.21
2022-11-23T14:12:18.273Z,68.86
2022-11-23T14:14:53.900Z,69.32
2022-11-23T14:17:38.488Z,70.24
2022-11-23T14:20:21.624Z,69.84
2022-11-23T14:23:01.432Z,68.18
2022-11-23T14:25:39.575Z,69.04
2022-11-23T14:28:27.674Z,69.34
2022-11-23T14:31:07.673Z,69.77
2022-11-23T14:33:43.922Z,70.28
2022-11-23T14:36:23.316Z,71.71
2022-11-23T14:39:33.839Z,71.27
2022-11-23T14:42:05.107Z,71.25
2022-11-23T14:44:38.651Z,69.97
2022-11-23T14:47:08.683Z,70.65
2022-11-23T14:49:37.377Z,69.94
2022-11-23T14:52:06.708Z,69.18
2022-11-23T14:54:36.301Z,67.52
2022-11-23T14:57:05.879Z,67.35
2022-11-23T14:59:37.941Z,67.36
2022-11-23T15:02:15.517Z,67.34
2022-11-23T15:05:03.527Z,69.31
2022-11-23T15:07:43.352Z,67.94
2022-11-23T15:10:28.973Z,68.42
2022-11-23T15:12:56.711Z,68.87
2022-11-23T15:15:26.367Z,68.99
2022-11-23T15:17:55.644Z,69.91
2022-11-23T15:20:26.133Z,69.00
2022-11-23T15:22:54.062Z,68.83
2022-11-23T15:25:24.027Z,69.52
2022-11-23T15:27:51.876Z,70.08
2022-11-23T15:30:21.237Z,68.34
2022-11-23T15:33:00.364Z,68.63
2022-11-23T15:35:32.893Z,69.68
2022-11-23T15:38:01.815Z,69.94
2022-11-23T15:40:35.145Z,70.17
2022-11-23T15:43:03.080Z,70.44
2022-11-23T15:45:35.442Z,72.51
2022-11-23T15:48:04.192Z,71.46
2022-11-23T15:50:34.228Z,71.75
2022-11-23T15:53:03.155Z,71.61
2022-11-23T15:55:32.364Z,71.94
2022-11-23T15:58:02.411Z,73.69
2022-11-23T16:00:30.540Z,74.48
2022-11-23T16:03:22.861Z,74.66
2022-11-23T16:06:18.627Z,75.97
2022-11-23T16:08:46.972Z,76.36
2022-11-23T16:11:31.922Z,76.99
2022-11-23T16:14:17.794Z,77.83
2022-11-23T16:16:46.866Z,77.51
2022-11-23T16:19:24.332Z,78.19
2022-11-23T16:22:00.699Z,79.89
2022-11-23T16:24:31.730Z,79.25
2022-11-23T16:27:01.809Z,80.76
2022-11-23T16:29:37.095Z,79.38
2022-11-23T16:32:07.225Z,79.00
2022-11-23T16:34:35.546Z,79.74
2022-11-23T16:37:04.557Z,79.68
2022-11-23T16:39:32.269Z,77.98
2022-11-23T16:42:01.449Z,79.84
2022-11-23T16:44:31.097Z,79.36
2022-11-23T16:47:17.812Z,78.08
2022-11-23T16:49:45.632Z,78.06
2022-11-23T16:52:13.536Z,78.92
2022-11-23T16:54:41.306Z,78.08
2022-11-23T16:57:19.457Z,78.50
2022-11-23T16:59:47.350Z,79.81
2022-11-23T17:02:16.805Z,80.75
2022-11-23T17:04:45.228Z,82.01
2022-11-23T17:07:13.228Z,82.36
2022-11-23T17:09:40.981Z,83.92
2022-11-23T17:12:14.741Z,83.10
2022-11-23T17:14:46.461Z,82.78
2022-11-23T17:17:20.162Z,87.13
2022-11-23T17:19:49.599Z,83.75
2022-11-23T17:22:18.601Z,83.29
2022-11-23T17:24:47.134Z,84.54
2022-11-23T17:27:18.119Z,83.02
2022-11-23T17:29:48.190Z,80.79
2022-11-23T17:32:16.000Z,80.11
2022-11-23T17:34:43.693Z,80.55
2022-11-23T17:37:18.217Z,81.46
2022-11-23T17:39:46.205Z,81.17
2022-11-23T17:42:14.097Z,81.48
2022-11-23T17:44:42.068Z,83.37
2022-11-23T17:47:22.188Z,81.94
2022-11-23T17:49:50.010Z,81.68
2022-11-23T17:52:17.800Z,81.37
2022-11-23T17:54:45.524Z,81.95
2022-11-23T17:57:15.937Z,81.46
2022-11-23T17:59:44.000Z,80.90
2022-11-23T18:02:12.096Z,82.07
2022-11-23T18:04:41.396Z,81.76
2022-11-23T18:07:13.785Z,81.67
2022-11-23T18:09:41.740Z,83.02
2022-11-23T18:12:10.416Z,83.15
2022-11-23T18:14:38.663Z,83.03
2022-11-23T18:17:06.477Z,84.55
2022-11-23T18:19:34.745Z,84.74
2022-11-23T18:22:04.020Z,84.25
2022-11-23T18:24:31.724Z,83.06
2022-11-23T18:26:59.438Z,82.30
2022-11-23T18:29:27.140Z,83.08
2022-11-23T18:31:54.883Z,83.15
2022-11-23T18:34:22.586Z,83.18
2022-11-23T18:36:50.508Z,82.93
2022-11-23T18:39:19.523Z,84.07
2022-11-23T18:41:47.644Z,83.37
2022-11-23T18:44:15.463Z,84.25
2022-11-23T18:46:45.583Z,84.41
2022-11-23T18:49:14.064Z,84.00
2022-11-23T18:51:41.846Z,83.02
2022-11-23T18:54:09.522Z,83.11
2022-11-23T18:56:38.658Z,83.17
2022-11-23T18:59:07.828Z,82.62
2022-11-23T19:01:35.639Z,82.14
2022-11-23T19:04:03.988Z,83.77
2022-11-23T19:06:32.632Z,84.00
2022-11-23T19:09:01.780Z,85.11
2022-11-23T19:11:29.579Z,85.05
2022-11-23T19:14:01.362Z,88.81
2022-11-23T19:16:31.391Z,95.91
2022-11-23T19:19:01.814Z,98.30
2022-11-23T19:21:31.528Z,100.00
2022-11-23T19:24:01.617Z,98.73
2022-11-23T19:26:30.962Z,100.00
2022-11-23T19:29:00.373Z,100.00
2022-11-23T19:31:30.054Z,100.00
2022-11-23T19:34:01.364Z,100.00
2022-11-23T19:36:30.997Z,100.00
2022-11-23T19:39:00.989Z,100.00
2022-11-23T19:41:30.937Z,100.00
2022-11-23T19:44:01.466Z,100.00
2022-11-23T19:46:31.039Z,100.00
2022-11-23T19:48:59.514Z,100.00
2022-11-23T19:51:29.114Z,100.00
2022-11-23T19:53:58.016Z,100.00
2022-11-23T19:56:28.783Z,100.00
2022-11-23T19:58:58.847Z,100.00
2022-11-23T20:01:32.093Z,100.00
2022-11-23T20:04:07.933Z,100.00
2022-11-23T20:06:38.423Z,100.00
2022-11-23T20:09:08.255Z,100.00
2022-11-23T20:11:37.499Z,99.95
2022-11-23T20:14:06.008Z,100.00
2022-11-23T20:16:35.420Z,99.55
2022-11-23T20:19:04.966Z,100.00
2022-11-23T20:21:34.422Z,100.00
2022-11-23T20:24:05.719Z,100.00
2022-11-23T20:26:36.282Z,99.30
2022-11-23T20:29:05.922Z,99.47
2022-11-23T20:31:36.727Z,100.00
2022-11-23T20:34:07.380Z,100.00
2022-11-23T20:36:38.451Z,100.00
2022-11-23T20:39:08.487Z,100.00
2022-11-23T20:41:38.553Z,100.00
2022-11-23T20:44:08.368Z,99.78
2022-11-23T20:47:00.550Z,99.89
2022-11-23T20:49:25.643Z,98.92
2022-11-23T20:51:53.361Z,98.18
2022-11-23T20:54:21.133Z,98.32
2022-11-23T20:56:49.508Z,96.82
2022-11-23T20:59:17.572Z,97.55
2022-11-23T21:01:47.010Z,97.13
2022-11-23T21:04:15.106Z,97.80
2022-11-23T21:06:43.066Z,96.36
2022-11-23T21:09:12.182Z,97.95
2022-11-23T21:11:57.640Z,97.47
2022-11-23T21:14:27.594Z,96.76
2022-11-23T21:16:59.016Z,96.54
2022-11-23T21:19:28.585Z,96.66
2022-11-23T21:21:57.931Z,96.29
2022-11-23T21:24:26.216Z,98.13
2022-11-23T21:26:54.171Z,99.60
2022-11-23T21:29:22.251Z,98.35
2022-11-23T21:31:50.792Z,98.95
2022-11-23T21:34:22.011Z,100.00
2022-11-23T21:36:51.719Z,99.79
2022-11-23T21:39:20.167Z,99.10
2022-11-23T21:41:50.771Z,98.27
2022-11-23T21:44:19.415Z,98.60
2022-11-23T21:46:47.394Z,98.69
2022-11-23T21:49:15.290Z,99.24
2022-11-23T21:51:45.688Z,100.00
2022-11-23T21:54:15.865Z,100.00
2022-11-23T21:56:44.903Z,100.00
2022-11-23T21:59:13.033Z,100.00
2022-11-23T22:01:41.311Z,100.00
2022-11-23T22:04:11.206Z,100.00
2022-11-23T22:06:40.112Z,100.00
2022-11-23T22:09:10.575Z,100.00
2022-11-23T22:11:41.597Z,100.00
2022-11-23T22:14:11.995Z,100.00
2022-11-23T22:16:41.765Z,100.00
2022-11-23T22:19:11.681Z,100.00
2022-11-23T22:21:40.877Z,100.00
2022-11-23T22:24:12.967Z,100.00
2022-11-23T22:26:40.731Z,100.00
2022-11-23T22:29:08.519Z,100.00
2022-11-23T22:31:36.723Z,100.00
2022-11-23T22:34:06.817Z,100.00
2022-11-23T22:36:34.569Z,100.00
2022-11-23T22:39:04.060Z,100.00
2022-11-23T22:41:36.352Z,100.00
2022-11-23T22:44:05.035Z,100.00
2022-11-23T22:46:32.903Z,100.00
2022-11-23T22:49:01.401Z,100.00
2022-11-23T22:51:29.876Z,100.00
2022-11-23T22:53:59.345Z,100.00
2022-11-23T22:56:28.666Z,100.00
2022-11-23T22:58:57.796Z,100.00
2022-11-23T23:01:27.439Z,100.00
2022-11-23T23:03:56.499Z,100.00
2022-11-23T23:06:25.484Z,100.00
2022-11-23T23:08:55.961Z,100.00
2022-11-23T23:11:24.049Z,100.00
2022-11-23T23:13:52.516Z,100.00
2022-11-23T23:16:21.967Z,100.00
2022-11-23T23:18:49.961Z,100.00
2022-11-23T23:21:19.800Z,100.00
2022-11-23T23:23:49.032Z,100.00
2022-11-23T23:26:18.929Z,100.00
2022-11-23T23:28:46.919Z,100.00
2022-11-23T23:31:17.235Z,100.00
2022-11-23T23:33:46.904Z,100.00
2022-11-23T23:36:16.497Z,100.00
2022-11-23T23:38:44.584Z,100.00
2022-11-23T23:41:13.828Z,100.00
2022-11-23T23:43:42.162Z,100.00
2022-11-23T23:46:11.829Z,100.00
2022-11-23T23:48:41.255Z,100.00
2022-11-23T23:51:12.082Z,100.00
2022-11-23T23:53:40.562Z,100.00
2022-11-23T23:56:12.557Z,100.00
2022-11-23T23:58:40.473Z,100.00
